createdAt,value
2023-05-23T00:02:01.813Z,13.17
2023-05-23T00:05:03.591Z,13.04
2023-05-23T00:08:05.060Z,12.95
2023-05-23T00:11:06.429Z,12.94
2023-05-23T00:14:08.329Z,12.88
2023-05-23T00:17:10.946Z,12.91
2023-05-23T00:20:12.481Z,12.92
2023-05-23T00:23:18.988Z,12.92
2023-05-23T00:26:21.756Z,12.99
2023-05-23T00:29:23.163Z,12.95
2023-05-23T00:32:25.023Z,12.81
2023-05-23T00:35:26.450Z,12.77
2023-05-23T00:38:28.509Z,12.77
2023-05-23T00:41:30.576Z,12.73
2023-05-23T00:44:32.004Z,12.69
2023-05-23T00:47:33.425Z,12.74
2023-05-23T00:50:36.220Z,12.63
2023-05-23T00:53:37.656Z,12.58
2023-05-23T00:56:39.047Z,12.61
2023-05-23T00:59:40.785Z,12.65
2023-05-23T01:02:45.127Z,12.75
2023-05-23T01:05:46.748Z,12.75
2023-05-23T01:08:48.096Z,12.69
2023-05-23T01:11:52.216Z,12.56
2023-05-23T01:14:59.527Z,12.49
2023-05-23T01:18:10.623Z,12.39
2023-05-23T01:21:13.363Z,12.40
2023-05-23T01:24:22.413Z,12.31
2023-05-23T01:27:26.803Z,12.33
2023-05-23T01:30:28.235Z,12.36
2023-05-23T01:33:30.754Z,12.30
2023-05-23T01:36:35.070Z,12.30
2023-05-23T01:39:36.749Z,12.34
2023-05-23T01:42:38.132Z,12.33
2023-05-23T01:45:39.640Z,12.23
2023-05-23T01:48:41.197Z,12.12
2023-05-23T01:51:42.618Z,12.07
2023-05-23T01:54:43.989Z,11.92
2023-05-23T01:57:45.605Z,11.93
2023-05-23T02:00:47.075Z,11.80
2023-05-23T02:03:48.649Z,11.84
2023-05-23T02:06:50.126Z,11.84
2023-05-23T02:09:51.569Z,11.77
2023-05-23T02:12:52.977Z,11.79
2023-05-23T02:15:54.384Z,11.87
2023-05-23T02:18:59.352Z,11.86
2023-05-23T02:22:00.972Z,11.78
2023-05-23T02:25:02.375Z,11.84
2023-05-23T02:28:03.773Z,11.76
2023-05-23T02:31:05.169Z,11.63
2023-05-23T02:34:06.568Z,11.58
2023-05-23T02:37:07.957Z,11.67
2023-05-23T02:40:09.621Z,11.69
2023-05-23T02:43:11.021Z,11.70
2023-05-23T02:46:13.696Z,11.77
2023-05-23T02:49:15.200Z,11.85
2023-05-23T02:52:17.078Z,11.88
2023-05-23T02:55:18.497Z,11.81
2023-05-23T02:58:20.792Z,11.72
2023-05-23T03:01:22.289Z,11.75
2023-05-23T03:04:24.019Z,11.84
2023-05-23T03:07:28.464Z,11.90
2023-05-23T03:10:30.755Z,11.89
2023-05-23T03:13:32.299Z,11.89
2023-05-23T03:16:33.881Z,11.85
2023-05-23T03:19:36.773Z,11.97
2023-05-23T03:22:38.439Z,12.07
2023-05-23T03:25:40.132Z,12.06
2023-05-23T03:28:41.817Z,12.09
2023-05-23T03:31:43.365Z,12.16
2023-05-23T03:34:44.971Z,12.10
2023-05-23T03:37:46.525Z,12.13
2023-05-23T03:40:48.032Z,12.10
2023-05-23T03:43:49.533Z,12.23
2023-05-23T03:46:51.069Z,12.34
2023-05-23T03:49:52.870Z,12.37
2023-05-23T03:52:54.599Z,12.64
2023-05-23T03:55:56.150Z,12.68
2023-05-23T03:58:57.682Z,12.77
2023-05-23T04:02:00.549Z,12.96
2023-05-23T04:05:03.076Z,12.93
2023-05-23T04:08:04.651Z,12.90
2023-05-23T04:11:06.256Z,12.98
2023-05-23T04:14:08.114Z,12.89
2023-05-23T04:17:09.715Z,12.90
2023-05-23T04:20:11.829Z,12.91
2023-05-23T04:23:13.270Z,12.94
2023-05-23T04:26:14.776Z,12.96
2023-05-23T04:29:16.425Z,12.94
2023-05-23T04:32:19.442Z,12.89
2023-05-23T04:35:21.310Z,12.86
2023-05-23T04:38:25.105Z,12.97
2023-05-23T04:41:26.551Z,13.00
2023-05-23T04:44:30.364Z,13.01
2023-05-23T04:47:36.964Z,13.11
2023-05-23T04:50:40.621Z,13.00
2023-05-23T04:53:43.034Z,12.88
2023-05-23T04:56:44.621Z,13.02
2023-05-23T04:59:46.547Z,13.10
2023-05-23T05:02:48.273Z,12.99
2023-05-23T05:05:49.699Z,13.02
2023-05-23T05:08:51.276Z,13.16
2023-05-23T05:11:52.682Z,13.37
2023-05-23T05:14:54.084Z,13.30
2023-05-23T05:17:56.350Z,13.35
2023-05-23T05:20:58.590Z,13.38
2023-05-23T05:24:00.161Z,13.49
2023-05-23T05:27:01.591Z,13.61
2023-05-23T05:30:06.470Z,13.60
2023-05-23T05:33:08.017Z,13.75
2023-05-23T05:36:09.509Z,13.65
2023-05-23T05:39:10.915Z,13.69
2023-05-23T05:42:12.306Z,13.85
2023-05-23T05:45:13.751Z,13.85
2023-05-23T05:48:15.188Z,13.85
2023-05-23T05:51:17.534Z,13.97
2023-05-23T05:54:19.448Z,14.16
2023-05-23T05:57:20.913Z,14.24
2023-05-23T06:00:22.575Z,14.28
2023-05-23T06:03:24.775Z,14.37
2023-05-23T06:06:26.386Z,14.41
2023-05-23T06:09:27.799Z,14.41
2023-05-23T06:12:29.197Z,14.62
2023-05-23T06:15:30.651Z,14.65
2023-05-23T06:18:32.063Z,14.62
2023-05-23T06:21:33.541Z,14.73
2023-05-23T06:24:35.023Z,14.87
2023-05-23T06:27:36.940Z,14.99
2023-05-23T06:30:39.224Z,15.11
2023-05-23T06:33:40.924Z,15.28
2023-05-23T06:36:43.002Z,15.44
2023-05-23T06:39:44.489Z,15.34
2023-05-23T06:42:45.967Z,15.30
2023-05-23T06:45:47.764Z,15.34
2023-05-23T06:48:54.299Z,15.49
2023-05-23T06:52:00.869Z,15.48
2023-05-23T06:55:02.283Z,15.67
2023-05-23T06:58:06.939Z,15.76
2023-05-23T07:01:08.407Z,15.70
2023-05-23T07:04:09.875Z,15.71
2023-05-23T07:07:11.309Z,15.56
2023-05-23T07:10:13.077Z,15.75
2023-05-23T07:13:14.506Z,15.79
2023-05-23T07:16:16.163Z,15.74
2023-05-23T07:19:17.616Z,15.62
2023-05-23T07:22:19.142Z,15.87
2023-05-23T07:25:20.568Z,15.92
2023-05-23T07:28:22.255Z,16.13
2023-05-23T07:31:23.716Z,16.25
2023-05-23T07:34:26.802Z,16.27
2023-05-23T07:37:28.244Z,16.39
2023-05-23T07:40:29.703Z,16.42
2023-05-23T07:43:31.101Z,16.49
2023-05-23T07:46:32.587Z,16.40
2023-05-23T07:49:34.353Z,16.65
2023-05-23T07:52:36.317Z,16.65
2023-05-23T07:55:37.769Z,16.83
2023-05-23T07:58:39.177Z,17.10
2023-05-23T08:01:40.670Z,17.01
2023-05-23T08:04:42.211Z,17.25
2023-05-23T08:07:43.676Z,17.20
2023-05-23T08:10:45.772Z,17.10
2023-05-23T08:13:47.235Z,17.15
2023-05-23T08:16:49.119Z,17.32
2023-05-23T08:19:50.814Z,17.61
2023-05-23T08:22:52.896Z,17.69
2023-05-23T08:25:54.469Z,17.34
2023-05-23T08:28:56.039Z,17.63
2023-05-23T08:31:57.679Z,17.84
2023-05-23T08:34:59.189Z,17.80
2023-05-23T08:38:01.708Z,17.60
2023-05-23T08:41:03.172Z,17.44
2023-05-23T08:44:04.623Z,17.46
2023-05-23T08:47:06.019Z,17.27
2023-05-23T08:50:08.193Z,17.33
2023-05-23T08:53:10.423Z,17.27
2023-05-23T08:56:11.863Z,17.45
2023-05-23T08:59:13.287Z,17.46
2023-05-23T09:02:14.688Z,17.66
2023-05-23T09:05:16.170Z,17.87
2023-05-23T09:08:19.340Z,17.98
2023-05-23T09:11:22.001Z,17.96
2023-05-23T09:14:23.437Z,18.13
2023-05-23T09:17:24.878Z,18.31
2023-05-23T09:20:26.335Z,18.28
2023-05-23T09:23:31.268Z,18.42
2023-05-23T09:26:32.692Z,17.96
2023-05-23T09:29:38.490Z,18.01
2023-05-23T09:32:39.991Z,17.88
2023-05-23T09:35:45.203Z,17.85
2023-05-23T09:38:46.879Z,17.75
2023-05-23T09:41:48.742Z,17.79
2023-05-23T09:44:50.362Z,18.09
2023-05-23T09:47:52.291Z,18.22
2023-05-23T09:50:53.827Z,18.19
2023-05-23T09:53:57.032Z,18.26
2023-05-23T09:57:01.308Z,18.49
2023-05-23T10:00:06.465Z,18.84
2023-05-23T10:03:12.839Z,18.97
2023-05-23T10:06:18.588Z,19.44
2023-05-23T10:09:20.775Z,19.54
2023-05-23T10:12:22.183Z,19.61
2023-05-23T10:15:23.975Z,19.90
2023-05-23T10:18:35.073Z,19.64
2023-05-23T10:21:38.927Z,19.17
2023-05-23T10:24:40.405Z,19.46
2023-05-23T10:27:41.949Z,20.22
2023-05-23T10:30:43.468Z,20.50
2023-05-23T10:33:46.461Z,20.02
2023-05-23T10:36:54.115Z,20.49
2023-05-23T10:39:57.861Z,20.27
2023-05-23T10:43:02.789Z,20.48
2023-05-23T10:46:04.350Z,20.40
2023-05-23T10:49:05.821Z,19.73
2023-05-23T10:52:07.430Z,20.46
2023-05-23T10:55:15.413Z,20.65
2023-05-23T10:58:18.973Z,20.03
2023-05-23T11:01:20.820Z,20.01
2023-05-23T11:04:26.640Z,20.63
2023-05-23T11:07:32.041Z,20.12
2023-05-23T11:10:33.433Z,20.40
2023-05-23T11:13:53.201Z,20.52
2023-05-23T11:16:54.639Z,20.86
2023-05-23T11:19:57.064Z,20.60
2023-05-23T11:23:02.811Z,20.88
2023-05-23T11:26:04.342Z,20.40
2023-05-23T11:29:09.289Z,20.20
2023-05-23T11:32:15.991Z,19.75
2023-05-23T11:35:18.936Z,20.16
2023-05-23T11:38:20.423Z,19.96
2023-05-23T11:41:21.988Z,19.43
2023-05-23T11:44:23.512Z,19.02
2023-05-23T11:47:24.994Z,19.17
2023-05-23T11:50:26.461Z,19.31
2023-05-23T11:53:28.149Z,19.48
2023-05-23T11:56:29.550Z,19.21
2023-05-23T11:59:30.962Z,19.06
2023-05-23T12:02:32.362Z,19.13
2023-05-23T12:05:33.833Z,19.21
2023-05-23T12:08:35.359Z,19.36
2023-05-23T12:11:36.760Z,19.19
2023-05-23T12:14:44.360Z,19.21
2023-05-23T12:17:46.557Z,19.74
2023-05-23T12:20:53.808Z,19.80
2023-05-23T12:23:55.400Z,19.82
2023-05-23T12:27:00.220Z,20.13
2023-05-23T12:30:14.117Z,20.46
2023-05-23T12:33:16.060Z,19.95
2023-05-23T12:36:25.100Z,19.60
2023-05-23T12:39:28.227Z,20.15
2023-05-23T12:42:30.770Z,19.94
2023-05-23T12:45:32.249Z,19.91
2023-05-23T12:48:33.946Z,19.79
2023-05-23T12:51:35.516Z,19.91
2023-05-23T12:54:37.099Z,19.65
2023-05-23T12:57:38.690Z,20.04
2023-05-23T13:00:40.223Z,20.19
2023-05-23T13:03:41.707Z,19.96
2023-05-23T13:06:43.109Z,20.00
2023-05-23T13:09:46.553Z,20.24
2023-05-23T13:12:47.953Z,20.45
2023-05-23T13:15:51.095Z,20.39
2023-05-23T13:18:53.297Z,20.31
2023-05-23T13:21:54.746Z,20.77
2023-05-23T13:24:56.444Z,20.45
2023-05-23T13:27:57.965Z,20.57
2023-05-23T13:30:59.391Z,20.71
2023-05-23T13:34:01.086Z,20.61
2023-05-23T13:37:02.547Z,20.74
2023-05-23T13:40:04.260Z,20.18
2023-05-23T13:43:06.037Z,20.86
2023-05-23T13:46:07.521Z,20.97
2023-05-23T13:49:08.976Z,21.02
2023-05-23T13:52:10.397Z,20.67
2023-05-23T13:55:11.769Z,20.64
2023-05-23T13:58:13.209Z,20.27
2023-05-23T14:01:14.662Z,20.82
2023-05-23T14:04:16.070Z,20.38
2023-05-23T14:07:17.943Z,20.20
2023-05-23T14:10:19.348Z,20.22
2023-05-23T14:13:21.839Z,20.13
2023-05-23T14:16:23.354Z,20.46
2023-05-23T14:19:24.849Z,20.17
2023-05-23T14:22:26.584Z,20.12
2023-05-23T14:25:27.980Z,19.78
2023-05-23T14:28:29.454Z,19.44
2023-05-23T14:31:30.858Z,19.51
2023-05-23T14:34:32.302Z,19.48
2023-05-23T14:37:33.729Z,19.63
2023-05-23T14:40:35.169Z,19.94
2023-05-23T14:43:36.671Z,19.73
2023-05-23T14:46:38.220Z,19.67
2023-05-23T14:49:39.658Z,19.69
2023-05-23T14:52:41.808Z,19.56
2023-05-23T14:55:43.382Z,19.70
2023-05-23T14:58:45.898Z,19.57
2023-05-23T15:01:47.337Z,19.46
2023-05-23T15:04:48.779Z,19.43
2023-05-23T15:07:51.062Z,19.49
2023-05-23T15:10:52.445Z,19.63
2023-05-23T15:13:53.906Z,19.42
2023-05-23T15:16:55.804Z,19.62
2023-05-23T15:19:57.422Z,19.49
2023-05-23T15:22:58.813Z,19.60
2023-05-23T15:26:00.589Z,19.49
2023-05-23T15:29:01.984Z,19.74
2023-05-23T15:32:03.450Z,19.57
2023-05-23T15:35:05.098Z,19.88
2023-05-23T15:38:06.532Z,19.41
2023-05-23T15:41:07.940Z,19.55
2023-05-23T15:44:09.422Z,19.36
2023-05-23T15:47:11.587Z,19.06
2023-05-23T15:50:14.389Z,19.17
2023-05-23T15:53:15.970Z,19.40
2023-05-23T15:56:17.497Z,19.51
2023-05-23T15:59:18.881Z,19.31
2023-05-23T16:02:20.369Z,19.43
2023-05-23T16:05:21.905Z,19.30
2023-05-23T16:08:23.316Z,19.70
2023-05-23T16:11:24.691Z,19.60
2023-05-23T16:14:26.097Z,19.08
2023-05-23T16:17:27.491Z,19.34
2023-05-23T16:20:28.924Z,19.30
2023-05-23T16:23:30.595Z,18.99
2023-05-23T16:26:32.109Z,18.90
2023-05-23T16:29:33.589Z,18.98
2023-05-23T16:32:35.009Z,18.94
2023-05-23T16:35:36.439Z,19.09
2023-05-23T16:38:37.850Z,19.21
2023-05-23T16:41:39.241Z,19.18
2023-05-23T16:44:41.059Z,19.08
2023-05-23T16:47:42.589Z,19.06
2023-05-23T16:50:44.372Z,19.14
2023-05-23T16:53:45.924Z,19.14
2023-05-23T16:56:47.444Z,19.01
2023-05-23T16:59:48.895Z,18.91
2023-05-23T17:02:50.325Z,18.87
2023-05-23T17:05:51.762Z,18.64
2023-05-23T17:08:53.260Z,18.66
2023-05-23T17:11:54.694Z,18.85
2023-05-23T17:14:56.164Z,18.72
2023-05-23T17:17:57.614Z,18.85
2023-05-23T17:20:59.533Z,18.69
2023-05-23T17:24:00.989Z,18.90
2023-05-23T17:27:03.721Z,18.76
2023-05-23T17:30:05.642Z,18.62
2023-05-23T17:33:07.922Z,18.43
2023-05-23T17:36:09.410Z,18.40
2023-05-23T17:39:10.827Z,18.37
2023-05-23T17:42:12.751Z,18.31
2023-05-23T17:45:14.266Z,18.25
2023-05-23T17:48:15.761Z,18.00
2023-05-23T17:51:17.195Z,17.81
2023-05-23T17:54:18.603Z,18.11
2023-05-23T17:57:20.018Z,18.18
2023-05-23T18:00:21.583Z,18.24
2023-05-23T18:03:24.285Z,18.10
2023-05-23T18:06:27.018Z,18.16
2023-05-23T18:09:28.600Z,17.98
2023-05-23T18:12:30.362Z,18.21
2023-05-23T18:15:31.858Z,18.32
2023-05-23T18:18:33.518Z,18.23
2023-05-23T18:21:35.015Z,17.90
2023-05-23T18:24:36.593Z,17.80
2023-05-23T18:27:38.074Z,17.72
2023-05-23T18:30:39.705Z,17.56
2023-05-23T18:33:41.341Z,17.50
2023-05-23T18:36:43.105Z,17.52
2023-05-23T18:39:44.541Z,17.42
2023-05-23T18:42:47.342Z,17.31
2023-05-23T18:45:48.882Z,17.28
2023-05-23T18:48:51.055Z,17.38
2023-05-23T18:51:54.327Z,17.49
2023-05-23T18:54:55.946Z,17.23
2023-05-23T18:57:59.055Z,17.12
2023-05-23T19:01:03.703Z,16.98
2023-05-23T19:04:05.163Z,16.95
2023-05-23T19:07:07.584Z,16.96
2023-05-23T19:10:09.184Z,16.83
2023-05-23T19:13:10.668Z,16.75
2023-05-23T19:16:12.070Z,16.70
2023-05-23T19:19:14.523Z,16.62
2023-05-23T19:22:16.171Z,16.65
2023-05-23T19:25:17.600Z,16.52
2023-05-23T19:28:19.045Z,16.43
2023-05-23T19:31:20.480Z,16.34
2023-05-23T19:34:22.148Z,16.31
2023-05-23T19:37:23.607Z,16.24
2023-05-23T19:40:25.179Z,16.25
2023-05-23T19:43:26.758Z,16.30
2023-05-23T19:46:29.018Z,16.31
2023-05-23T19:49:30.630Z,16.20
2023-05-23T19:52:32.342Z,15.83
2023-05-23T19:55:33.740Z,15.82
2023-05-23T19:58:36.122Z,15.76
2023-05-23T20:01:37.574Z,15.78
2023-05-23T20:04:38.946Z,15.52
2023-05-23T20:07:40.344Z,15.42
2023-05-23T20:10:43.232Z,15.38
2023-05-23T20:13:44.933Z,15.34
2023-05-23T20:16:46.449Z,15.39
2023-05-23T20:19:47.859Z,15.37
2023-05-23T20:22:49.319Z,15.13
2023-05-23T20:25:51.692Z,15.33
2023-05-23T20:28:53.257Z,15.36
2023-05-23T20:31:54.766Z,15.33
2023-05-23T20:34:56.240Z,15.24
2023-05-23T20:38:00.232Z,15.11
2023-05-23T20:41:06.538Z,14.89
2023-05-23T20:44:12.405Z,14.69
2023-05-23T20:47:15.414Z,14.93
2023-05-23T20:50:19.026Z,15.06
2023-05-23T20:53:20.416Z,14.86
2023-05-23T20:56:22.586Z,14.84
2023-05-23T20:59:26.259Z,14.93
2023-05-23T21:02:27.817Z,14.87
2023-05-23T21:05:29.263Z,14.70
2023-05-23T21:08:33.048Z,14.71
2023-05-23T21:11:36.220Z,14.75
2023-05-23T21:14:37.627Z,14.61
2023-05-23T21:17:39.027Z,14.79
2023-05-23T21:20:40.612Z,14.78
2023-05-23T21:23:42.153Z,14.56
2023-05-23T21:26:43.640Z,14.09
2023-05-23T21:29:46.858Z,14.25
2023-05-23T21:32:48.963Z,14.37
2023-05-23T21:35:51.138Z,13.99
2023-05-23T21:38:52.515Z,13.99
2023-05-23T21:41:53.886Z,14.12
2023-05-23T21:44:55.309Z,13.82
2023-05-23T21:47:56.789Z,13.76
2023-05-23T21:50:58.229Z,14.01
2023-05-23T21:53:59.627Z,14.10
2023-05-23T21:57:01.225Z,14.13
2023-05-23T22:00:04.677Z,14.08
2023-05-23T22:03:06.242Z,14.06
2023-05-23T22:06:07.743Z,14.16
2023-05-23T22:09:11.511Z,13.98
2023-05-23T22:12:13.781Z,13.83
2023-05-23T22:15:15.249Z,13.87
2023-05-23T22:18:16.749Z,13.63
2023-05-23T22:21:18.151Z,13.76
2023-05-23T22:24:19.543Z,13.52
2023-05-23T22:27:21.350Z,13.49
2023-05-23T22:30:22.765Z,13.48
2023-05-23T22:33:24.323Z,13.58
2023-05-23T22:36:25.759Z,13.80
2023-05-23T22:39:27.225Z,13.91
2023-05-23T22:42:28.705Z,13.94
2023-05-23T22:45:30.198Z,13.72
2023-05-23T22:48:34.356Z,13.64
2023-05-23T22:51:35.865Z,13.47
2023-05-23T22:54:37.281Z,13.75
2023-05-23T22:57:38.711Z,13.73
2023-05-23T23:00:40.248Z,13.47
2023-05-23T23:03:41.860Z,13.48
2023-05-23T23:06:44.436Z,13.65
2023-05-23T23:09:46.065Z,13.70
2023-05-23T23:12:47.465Z,13.75
2023-05-23T23:15:50.206Z,13.50
2023-05-23T23:18:52.577Z,13.51
2023-05-23T23:21:53.991Z,13.28
2023-05-23T23:24:55.745Z,13.48
2023-05-23T23:27:57.137Z,13.36
2023-05-23T23:30:58.520Z,13.28
2023-05-23T23:33:59.972Z,13.04
2023-05-23T23:37:01.359Z,13.05
2023-05-23T23:40:02.758Z,13.12
2023-05-23T23:43:04.158Z,13.28
2023-05-23T23:46:05.580Z,13.31
2023-05-23T23:49:06.957Z,13.24
2023-05-23T23:52:08.912Z,13.17
2023-05-23T23:55:10.368Z,13.00
2023-05-23T23:58:11.835Z,12.95
